sensor_id;sensor_type;location;lat;lon;timestamp;P1;durP1;ratioP1;P2;durP2;ratioP2
77076;SDS011;66003;52.286;104.306;2022-12-29T00:02:09;1.30;;;0.73;;
77076;SDS011;66003;52.286;104.306;2022-12-29T00:04:36;3.30;;;1.23;;
77076;SDS011;66003;52.286;104.306;2022-12-29T00:07:02;6.80;;;2.88;;
77076;SDS011;66003;52.286;104.306;2022-12-29T00:09:31;3.63;;;2.15;;
77076;SDS011;66003;52.286;104.306;2022-12-29T00:11:58;2.50;;;1.58;;
77076;SDS011;66003;52.286;104.306;2022-12-29T00:14:24;1.02;;;0.52;;
77076;SDS011;66003;52.286;104.306;2022-12-29T00:17:09;2.03;;;1.92;;
77076;SDS011;66003;52.286;104.306;2022-12-29T00:19:35;1.00;;;0.85;;
77076;SDS011;66003;52.286;104.306;2022-12-29T00:22:20;0.68;;;0.40;;
77076;SDS011;66003;52.286;104.306;2022-12-29T00:25:05;2.58;;;1.08;;
77076;SDS011;66003;52.286;104.306;2022-12-29T00:27:51;2.83;;;1.13;;
77076;SDS011;66003;52.286;104.306;2022-12-29T00:30:36;3.25;;;1.30;;
77076;SDS011;66003;52.286;104.306;2022-12-29T00:33:21;1.80;;;0.80;;
77076;SDS011;66003;52.286;104.306;2022-12-29T00:39:06;0.30;;;0.30;;
77076;SDS011;66003;52.286;104.306;2022-12-29T00:41:54;1.58;;;1.27;;
77076;SDS011;66003;52.286;104.306;2022-12-29T00:44:38;0.95;;;0.85;;
77076;SDS011;66003;52.286;104.306;2022-12-29T00:47:04;1.88;;;1.35;;
77076;SDS011;66003;52.286;104.306;2022-12-29T00:49:30;6.60;;;2.75;;
77076;SDS011;66003;52.286;104.306;2022-12-29T00:54:25;12.80;;;5.13;;
77076;SDS011;66003;52.286;104.306;2022-12-29T00:56:52;28.33;;;14.75;;
77076;SDS011;66003;52.286;104.306;2022-12-29T00:59:19;44.50;;;22.15;;
77076;SDS011;66003;52.286;104.306;2022-12-29T01:01:46;38.28;;;19.58;;
77076;SDS011;66003;52.286;104.306;2022-12-29T01:04:12;21.27;;;11.80;;
77076;SDS011;66003;52.286;104.306;2022-12-29T01:06:39;37.35;;;14.90;;
77076;SDS011;66003;52.286;104.306;2022-12-29T01:09:06;10.18;;;5.70;;
77076;SDS011;66003;52.286;104.306;2022-12-29T01:11:51;16.10;;;5.70;;
77076;SDS011;66003;52.286;104.306;2022-12-29T01:14:18;2.08;;;1.90;;
77076;SDS011;66003;52.286;104.306;2022-12-29T01:16:45;23.15;;;10.85;;
77076;SDS011;66003;52.286;104.306;2022-12-29T01:19:12;7.47;;;5.20;;
77076;SDS011;66003;52.286;104.306;2022-12-29T01:21:39;4.93;;;2.92;;
77076;SDS011;66003;52.286;104.306;2022-12-29T01:24:05;5.90;;;3.78;;
77076;SDS011;66003;52.286;104.306;2022-12-29T01:26:31;13.90;;;6.38;;
77076;SDS011;66003;52.286;104.306;2022-12-29T01:28:57;8.43;;;4.25;;
77076;SDS011;66003;52.286;104.306;2022-12-29T01:31:23;8.70;;;3.72;;
77076;SDS011;66003;52.286;104.306;2022-12-29T01:33:50;2.83;;;2.33;;
77076;SDS011;66003;52.286;104.306;2022-12-29T01:36:17;17.00;;;6.18;;
77076;SDS011;66003;52.286;104.306;2022-12-29T01:38:43;7.47;;;3.63;;
77076;SDS011;66003;52.286;104.306;2022-12-29T01:41:10;9.20;;;6.30;;
77076;SDS011;66003;52.286;104.306;2022-12-29T01:43:40;19.05;;;6.85;;
77076;SDS011;66003;52.286;104.306;2022-12-29T01:49:17;7.15;;;4.22;;
77076;SDS011;66003;52.286;104.306;2022-12-29T01:51:51;16.15;;;5.50;;
77076;SDS011;66003;52.286;104.306;2022-12-29T01:54:39;5.20;;;2.63;;
77076;SDS011;66003;52.286;104.306;2022-12-29T01:57:16;6.35;;;4.03;;
77076;SDS011;66003;52.286;104.306;2022-12-29T01:59:51;6.95;;;4.30;;
77076;SDS011;66003;52.286;104.306;2022-12-29T02:02:21;9.43;;;6.20;;
77076;SDS011;66003;52.286;104.306;2022-12-29T02:04:49;13.90;;;9.13;;
77076;SDS011;66003;52.286;104.306;2022-12-29T02:07:19;16.77;;;8.23;;
77076;SDS011;66003;52.286;104.306;2022-12-29T02:09:51;21.55;;;9.73;;
77076;SDS011;66003;52.286;104.306;2022-12-29T02:12:20;16.60;;;7.60;;
77076;SDS011;66003;52.286;104.306;2022-12-29T02:14:49;33.33;;;13.00;;
77076;SDS011;66003;52.286;104.306;2022-12-29T02:26:14;26.25;;;10.85;;
77076;SDS011;66003;52.286;104.306;2022-12-29T02:31:31;24.63;;;11.02;;
77076;SDS011;66003;52.286;104.306;2022-12-29T02:37:34;22.83;;;11.48;;
77076;SDS011;66003;52.286;104.306;2022-12-29T02:43:26;22.30;;;9.77;;
77076;SDS011;66003;52.286;104.306;2022-12-29T02:46:10;27.88;;;10.70;;
77076;SDS011;66003;52.286;104.306;2022-12-29T02:48:51;28.85;;;10.23;;
77076;SDS011;66003;52.286;104.306;2022-12-29T02:51:20;21.80;;;13.25;;
77076;SDS011;66003;52.286;104.306;2022-12-29T02:53:51;28.05;;;12.18;;
77076;SDS011;66003;52.286;104.306;2022-12-29T02:56:36;32.10;;;13.60;;
77076;SDS011;66003;52.286;104.306;2022-12-29T02:59:03;25.30;;;11.02;;
77076;SDS011;66003;52.286;104.306;2022-12-29T03:02:13;32.00;;;13.23;;
77076;SDS011;66003;52.286;104.306;2022-12-29T03:10:01;30.92;;;15.98;;
77076;SDS011;66003;52.286;104.306;2022-12-29T03:12:48;22.05;;;12.50;;
77076;SDS011;66003;52.286;104.306;2022-12-29T03:23:38;15.38;;;5.40;;
77076;SDS011;66003;52.286;104.306;2022-12-29T03:26:10;16.80;;;7.57;;
77076;SDS011;66003;52.286;104.306;2022-12-29T03:28:39;22.45;;;10.13;;
77076;SDS011;66003;52.286;104.306;2022-12-29T03:31:19;18.27;;;9.70;;
77076;SDS011;66003;52.286;104.306;2022-12-29T03:33:47;28.90;;;13.30;;
77076;SDS011;66003;52.286;104.306;2022-12-29T03:36:18;27.08;;;12.15;;
77076;SDS011;66003;52.286;104.306;2022-12-29T03:39:11;18.80;;;10.25;;
77076;SDS011;66003;52.286;104.306;2022-12-29T03:41:40;24.23;;;12.13;;
77076;SDS011;66003;52.286;104.306;2022-12-29T03:44:10;31.85;;;15.13;;
77076;SDS011;66003;52.286;104.306;2022-12-29T03:46:37;20.45;;;9.57;;
77076;SDS011;66003;52.286;104.306;2022-12-29T03:49:04;31.73;;;16.27;;
77076;SDS011;66003;52.286;104.306;2022-12-29T03:51:30;37.05;;;14.95;;
77076;SDS011;66003;52.286;104.306;2022-12-29T03:53:56;48.38;;;22.35;;
77076;SDS011;66003;52.286;104.306;2022-12-29T03:56:22;23.73;;;12.95;;
77076;SDS011;66003;52.286;104.306;2022-12-29T03:58:48;35.42;;;17.67;;
77076;SDS011;66003;52.286;104.306;2022-12-29T04:01:15;48.55;;;17.52;;
77076;SDS011;66003;52.286;104.306;2022-12-29T04:03:41;41.50;;;20.13;;
77076;SDS011;66003;52.286;104.306;2022-12-29T04:06:07;40.35;;;19.70;;
77076;SDS011;66003;52.286;104.306;2022-12-29T04:08:33;40.88;;;19.85;;
77076;SDS011;66003;52.286;104.306;2022-12-29T04:11:00;32.13;;;15.88;;
77076;SDS011;66003;52.286;104.306;2022-12-29T04:13:26;32.42;;;18.10;;
77076;SDS011;66003;52.286;104.306;2022-12-29T04:15:52;33.45;;;14.77;;
77076;SDS011;66003;52.286;104.306;2022-12-29T04:18:18;22.85;;;12.77;;
77076;SDS011;66003;52.286;104.306;2022-12-29T04:20:44;31.90;;;15.38;;
77076;SDS011;66003;52.286;104.306;2022-12-29T04:23:25;27.27;;;13.00;;
77076;SDS011;66003;52.286;104.306;2022-12-29T04:25:52;51.08;;;25.38;;
77076;SDS011;66003;52.286;104.306;2022-12-29T04:28:18;52.10;;;24.30;;
77076;SDS011;66003;52.286;104.306;2022-12-29T04:30:45;40.13;;;19.35;;
77076;SDS011;66003;52.286;104.306;2022-12-29T04:33:12;46.10;;;21.15;;
77076;SDS011;66003;52.286;104.306;2022-12-29T04:35:38;30.30;;;15.00;;
77076;SDS011;66003;52.286;104.306;2022-12-29T04:38:04;36.97;;;17.13;;
77076;SDS011;66003;52.286;104.306;2022-12-29T04:40:31;52.15;;;24.67;;
77076;SDS011;66003;52.286;104.306;2022-12-29T04:42:57;42.67;;;20.52;;
77076;SDS011;66003;52.286;104.306;2022-12-29T04:45:23;44.95;;;20.98;;
77076;SDS011;66003;52.286;104.306;2022-12-29T04:47:49;47.00;;;19.88;;
77076;SDS011;66003;52.286;104.306;2022-12-29T04:50:15;59.22;;;27.17;;
77076;SDS011;66003;52.286;104.306;2022-12-29T04:52:41;51.22;;;22.30;;
77076;SDS011;66003;52.286;104.306;2022-12-29T04:55:07;43.65;;;20.88;;
77076;SDS011;66003;52.286;104.306;2022-12-29T04:57:34;46.08;;;21.80;;
77076;SDS011;66003;52.286;104.306;2022-12-29T05:00:00;41.75;;;20.20;;
77076;SDS011;66003;52.286;104.306;2022-12-29T05:02:26;24.00;;;13.77;;
77076;SDS011;66003;52.286;104.306;2022-12-29T05:04:52;41.88;;;18.88;;
77076;SDS011;66003;52.286;104.306;2022-12-29T05:07:18;52.17;;;23.60;;
77076;SDS011;66003;52.286;104.306;2022-12-29T05:09:44;44.95;;;20.55;;
77076;SDS011;66003;52.286;104.306;2022-12-29T05:12:11;32.28;;;15.63;;
77076;SDS011;66003;52.286;104.306;2022-12-29T05:14:37;60.95;;;26.15;;
77076;SDS011;66003;52.286;104.306;2022-12-29T05:17:03;38.75;;;17.42;;
77076;SDS011;66003;52.286;104.306;2022-12-29T05:19:29;48.15;;;16.75;;
77076;SDS011;66003;52.286;104.306;2022-12-29T05:21:55;38.67;;;19.13;;
77076;SDS011;66003;52.286;104.306;2022-12-29T05:24:22;50.47;;;25.70;;
77076;SDS011;66003;52.286;104.306;2022-12-29T05:26:48;41.30;;;21.08;;
77076;SDS011;66003;52.286;104.306;2022-12-29T05:29:14;36.45;;;17.92;;
77076;SDS011;66003;52.286;104.306;2022-12-29T05:31:40;31.27;;;15.88;;
77076;SDS011;66003;52.286;104.306;2022-12-29T05:34:08;33.28;;;16.08;;
77076;SDS011;66003;52.286;104.306;2022-12-29T05:36:36;34.75;;;13.75;;
77076;SDS011;66003;52.286;104.306;2022-12-29T05:39:02;32.05;;;13.55;;
77076;SDS011;66003;52.286;104.306;2022-12-29T05:41:29;46.33;;;21.35;;
77076;SDS011;66003;52.286;104.306;2022-12-29T05:43:55;57.63;;;25.30;;
77076;SDS011;66003;52.286;104.306;2022-12-29T05:46:21;53.65;;;25.58;;
77076;SDS011;66003;52.286;104.306;2022-12-29T05:48:47;54.08;;;23.88;;
77076;SDS011;66003;52.286;104.306;2022-12-29T05:51:13;53.90;;;22.70;;
77076;SDS011;66003;52.286;104.306;2022-12-29T05:53:39;59.45;;;25.92;;
77076;SDS011;66003;52.286;104.306;2022-12-29T05:56:05;61.67;;;26.13;;
77076;SDS011;66003;52.286;104.306;2022-12-29T05:58:31;61.25;;;25.15;;
77076;SDS011;66003;52.286;104.306;2022-12-29T06:00:58;54.28;;;25.98;;
77076;SDS011;66003;52.286;104.306;2022-12-29T06:03:24;78.03;;;31.25;;
77076;SDS011;66003;52.286;104.306;2022-12-29T06:05:50;69.13;;;27.45;;
77076;SDS011;66003;52.286;104.306;2022-12-29T06:08:16;63.58;;;27.50;;
77076;SDS011;66003;52.286;104.306;2022-12-29T06:10:42;69.47;;;30.30;;
77076;SDS011;66003;52.286;104.306;2022-12-29T06:13:08;58.50;;;27.58;;
77076;SDS011;66003;52.286;104.306;2022-12-29T06:15:35;62.97;;;28.73;;
77076;SDS011;66003;52.286;104.306;2022-12-29T06:18:01;66.03;;;29.55;;
77076;SDS011;66003;52.286;104.306;2022-12-29T06:20:27;44.35;;;23.67;;
77076;SDS011;66003;52.286;104.306;2022-12-29T06:22:54;60.08;;;28.90;;
77076;SDS011;66003;52.286;104.306;2022-12-29T06:25:20;55.20;;;27.67;;
77076;SDS011;66003;52.286;104.306;2022-12-29T06:27:46;53.42;;;25.33;;
77076;SDS011;66003;52.286;104.306;2022-12-29T06:30:12;69.63;;;32.33;;
77076;SDS011;66003;52.286;104.306;2022-12-29T06:32:40;57.78;;;31.00;;
77076;SDS011;66003;52.286;104.306;2022-12-29T06:35:06;60.05;;;25.88;;
77076;SDS011;66003;52.286;104.306;2022-12-29T06:37:33;61.13;;;29.63;;
77076;SDS011;66003;52.286;104.306;2022-12-29T06:39:59;72.00;;;34.70;;
77076;SDS011;66003;52.286;104.306;2022-12-29T06:42:25;90.68;;;41.72;;
77076;SDS011;66003;52.286;104.306;2022-12-29T06:44:51;52.83;;;24.13;;
77076;SDS011;66003;52.286;104.306;2022-12-29T06:47:17;64.80;;;28.80;;
77076;SDS011;66003;52.286;104.306;2022-12-29T06:49:44;47.05;;;22.42;;
77076;SDS011;66003;52.286;104.306;2022-12-29T06:52:10;52.55;;;23.42;;
77076;SDS011;66003;52.286;104.306;2022-12-29T06:54:37;79.82;;;39.85;;
77076;SDS011;66003;52.286;104.306;2022-12-29T06:57:03;54.17;;;23.70;;
77076;SDS011;66003;52.286;104.306;2022-12-29T06:59:29;76.75;;;36.22;;
77076;SDS011;66003;52.286;104.306;2022-12-29T07:01:55;68.00;;;31.40;;
77076;SDS011;66003;52.286;104.306;2022-12-29T07:04:21;61.03;;;29.48;;
77076;SDS011;66003;52.286;104.306;2022-12-29T07:06:47;70.03;;;32.53;;
77076;SDS011;66003;52.286;104.306;2022-12-29T07:09:13;63.30;;;29.10;;
77076;SDS011;66003;52.286;104.306;2022-12-29T07:11:39;72.18;;;33.97;;
77076;SDS011;66003;52.286;104.306;2022-12-29T07:14:05;80.28;;;31.15;;
77076;SDS011;66003;52.286;104.306;2022-12-29T07:16:31;90.38;;;39.05;;
77076;SDS011;66003;52.286;104.306;2022-12-29T07:18:59;67.53;;;30.27;;
77076;SDS011;66003;52.286;104.306;2022-12-29T07:21:25;57.92;;;26.33;;
77076;SDS011;66003;52.286;104.306;2022-12-29T07:23:51;71.57;;;31.42;;
77076;SDS011;66003;52.286;104.306;2022-12-29T07:26:19;63.15;;;26.85;;
77076;SDS011;66003;52.286;104.306;2022-12-29T07:28:45;82.15;;;33.60;;
77076;SDS011;66003;52.286;104.306;2022-12-29T07:31:15;73.95;;;34.30;;
77076;SDS011;66003;52.286;104.306;2022-12-29T07:33:42;99.15;;;41.92;;
77076;SDS011;66003;52.286;104.306;2022-12-29T07:36:10;83.90;;;40.40;;
77076;SDS011;66003;52.286;104.306;2022-12-29T07:38:36;86.45;;;37.72;;
77076;SDS011;66003;52.286;104.306;2022-12-29T07:41:02;77.68;;;39.78;;
77076;SDS011;66003;52.286;104.306;2022-12-29T07:43:28;89.03;;;38.63;;
77076;SDS011;66003;52.286;104.306;2022-12-29T07:45:55;77.28;;;36.15;;
77076;SDS011;66003;52.286;104.306;2022-12-29T07:48:21;83.20;;;37.78;;
77076;SDS011;66003;52.286;104.306;2022-12-29T07:50:47;108.03;;;54.42;;
77076;SDS011;66003;52.286;104.306;2022-12-29T07:53:14;79.07;;;39.28;;
77076;SDS011;66003;52.286;104.306;2022-12-29T07:55:40;79.82;;;38.97;;
77076;SDS011;66003;52.286;104.306;2022-12-29T07:58:06;77.03;;;33.92;;
77076;SDS011;66003;52.286;104.306;2022-12-29T08:00:33;83.80;;;36.22;;
77076;SDS011;66003;52.286;104.306;2022-12-29T08:02:59;84.85;;;41.25;;
77076;SDS011;66003;52.286;104.306;2022-12-29T08:05:25;83.35;;;36.90;;
77076;SDS011;66003;52.286;104.306;2022-12-29T08:07:51;67.97;;;33.65;;
77076;SDS011;66003;52.286;104.306;2022-12-29T08:10:17;76.13;;;37.53;;
77076;SDS011;66003;52.286;104.306;2022-12-29T08:12:43;85.25;;;37.65;;
77076;SDS011;66003;52.286;104.306;2022-12-29T08:15:10;86.47;;;40.65;;
77076;SDS011;66003;52.286;104.306;2022-12-29T08:17:37;73.13;;;33.38;;
77076;SDS011;66003;52.286;104.306;2022-12-29T08:20:04;53.65;;;27.92;;
77076;SDS011;66003;52.286;104.306;2022-12-29T08:22:30;71.22;;;31.52;;
77076;SDS011;66003;52.286;104.306;2022-12-29T08:24:56;73.65;;;35.53;;
77076;SDS011;66003;52.286;104.306;2022-12-29T08:27:22;80.95;;;39.33;;
77076;SDS011;66003;52.286;104.306;2022-12-29T08:29:48;70.80;;;31.38;;
77076;SDS011;66003;52.286;104.306;2022-12-29T08:32:15;63.60;;;31.60;;
77076;SDS011;66003;52.286;104.306;2022-12-29T08:34:41;67.70;;;32.40;;
77076;SDS011;66003;52.286;104.306;2022-12-29T08:37:07;60.03;;;29.25;;
77076;SDS011;66003;52.286;104.306;2022-12-29T08:39:33;53.10;;;26.15;;
77076;SDS011;66003;52.286;104.306;2022-12-29T08:41:59;66.60;;;29.98;;
77076;SDS011;66003;52.286;104.306;2022-12-29T08:44:26;76.45;;;34.20;;
77076;SDS011;66003;52.286;104.306;2022-12-29T08:46:52;66.07;;;35.17;;
77076;SDS011;66003;52.286;104.306;2022-12-29T08:49:18;65.53;;;32.65;;
77076;SDS011;66003;52.286;104.306;2022-12-29T08:51:44;79.65;;;33.80;;
77076;SDS011;66003;52.286;104.306;2022-12-29T08:54:10;64.63;;;32.40;;
77076;SDS011;66003;52.286;104.306;2022-12-29T08:56:36;57.78;;;30.42;;
77076;SDS011;66003;52.286;104.306;2022-12-29T08:59:02;63.67;;;32.80;;
77076;SDS011;66003;52.286;104.306;2022-12-29T09:01:28;69.82;;;32.72;;
77076;SDS011;66003;52.286;104.306;2022-12-29T09:03:56;59.63;;;28.77;;
77076;SDS011;66003;52.286;104.306;2022-12-29T09:06:22;70.05;;;30.20;;
77076;SDS011;66003;52.286;104.306;2022-12-29T09:08:48;65.75;;;29.13;;
77076;SDS011;66003;52.286;104.306;2022-12-29T09:11:18;49.72;;;24.77;;
77076;SDS011;66003;52.286;104.306;2022-12-29T09:13:47;51.15;;;26.70;;
77076;SDS011;66003;52.286;104.306;2022-12-29T09:16:14;64.72;;;29.85;;
77076;SDS011;66003;52.286;104.306;2022-12-29T09:18:41;60.35;;;29.70;;
77076;SDS011;66003;52.286;104.306;2022-12-29T09:21:09;72.07;;;35.17;;
77076;SDS011;66003;52.286;104.306;2022-12-29T09:23:36;60.28;;;32.15;;
77076;SDS011;66003;52.286;104.306;2022-12-29T09:26:03;65.10;;;33.08;;
77076;SDS011;66003;52.286;104.306;2022-12-29T09:28:29;68.65;;;35.53;;
77076;SDS011;66003;52.286;104.306;2022-12-29T09:30:56;74.82;;;33.75;;
77076;SDS011;66003;52.286;104.306;2022-12-29T09:33:22;59.15;;;29.05;;
77076;SDS011;66003;52.286;104.306;2022-12-29T09:35:52;47.67;;;21.33;;
77076;SDS011;66003;52.286;104.306;2022-12-29T09:38:20;51.50;;;26.20;;
77076;SDS011;66003;52.286;104.306;2022-12-29T09:40:50;62.70;;;32.75;;
77076;SDS011;66003;52.286;104.306;2022-12-29T09:43:42;80.07;;;36.83;;
77076;SDS011;66003;52.286;104.306;2022-12-29T09:46:34;34.15;;;18.20;;
77076;SDS011;66003;52.286;104.306;2022-12-29T09:51:57;47.25;;;19.80;;
77076;SDS011;66003;52.286;104.306;2022-12-29T09:57:16;47.92;;;23.50;;
77076;SDS011;66003;52.286;104.306;2022-12-29T09:59:48;48.88;;;25.83;;
77076;SDS011;66003;52.286;104.306;2022-12-29T10:05:02;63.25;;;33.25;;
77076;SDS011;66003;52.286;104.306;2022-12-29T10:07:44;48.97;;;22.27;;
77076;SDS011;66003;52.286;104.306;2022-12-29T10:13:25;53.45;;;22.92;;
77076;SDS011;66003;52.286;104.306;2022-12-29T10:23:56;57.78;;;24.67;;
77076;SDS011;66003;52.286;104.306;2022-12-29T10:26:25;45.63;;;25.17;;
77076;SDS011;66003;52.286;104.306;2022-12-29T10:32:14;49.50;;;26.17;;
77076;SDS011;66003;52.286;104.306;2022-12-29T10:34:43;43.70;;;21.00;;
77076;SDS011;66003;52.286;104.306;2022-12-29T10:39:52;49.83;;;22.15;;
77076;SDS011;66003;52.286;104.306;2022-12-29T10:44:59;76.18;;;38.80;;
77076;SDS011;66003;52.286;104.306;2022-12-29T10:47:30;57.67;;;27.13;;
77076;SDS011;66003;52.286;104.306;2022-12-29T10:50:00;73.20;;;37.63;;
77076;SDS011;66003;52.286;104.306;2022-12-29T10:52:28;60.83;;;30.83;;
77076;SDS011;66003;52.286;104.306;2022-12-29T10:55:00;17.55;;;10.52;;
77076;SDS011;66003;52.286;104.306;2022-12-29T10:57:34;84.45;;;38.72;;
77076;SDS011;66003;52.286;104.306;2022-12-29T11:07:42;19.27;;;10.70;;
77076;SDS011;66003;52.286;104.306;2022-12-29T11:10:16;76.85;;;35.85;;
77076;SDS011;66003;52.286;104.306;2022-12-29T11:13:10;96.07;;;42.42;;
77076;SDS011;66003;52.286;104.306;2022-12-29T11:15:38;108.57;;;48.30;;
77076;SDS011;66003;52.286;104.306;2022-12-29T11:18:07;111.80;;;42.88;;
77076;SDS011;66003;52.286;104.306;2022-12-29T11:21:03;69.53;;;33.50;;
77076;SDS011;66003;52.286;104.306;2022-12-29T11:23:39;65.05;;;35.20;;
77076;SDS011;66003;52.286;104.306;2022-12-29T11:26:17;43.58;;;23.00;;
77076;SDS011;66003;52.286;104.306;2022-12-29T11:29:03;131.30;;;53.53;;
77076;SDS011;66003;52.286;104.306;2022-12-29T11:31:43;104.72;;;45.53;;
77076;SDS011;66003;52.286;104.306;2022-12-29T11:34:44;23.20;;;12.23;;
77076;SDS011;66003;52.286;104.306;2022-12-29T11:37:11;81.00;;;35.92;;
77076;SDS011;66003;52.286;104.306;2022-12-29T11:39:46;62.83;;;31.95;;
77076;SDS011;66003;52.286;104.306;2022-12-29T11:42:16;73.40;;;31.58;;
77076;SDS011;66003;52.286;104.306;2022-12-29T11:44:46;72.55;;;34.92;;
77076;SDS011;66003;52.286;104.306;2022-12-29T11:47:21;49.15;;;26.45;;
77076;SDS011;66003;52.286;104.306;2022-12-29T11:49:51;43.25;;;21.77;;
77076;SDS011;66003;52.286;104.306;2022-12-29T11:52:21;43.17;;;22.00;;
77076;SDS011;66003;52.286;104.306;2022-12-29T11:54:50;40.85;;;17.52;;
77076;SDS011;66003;52.286;104.306;2022-12-29T11:57:17;16.92;;;9.70;;
77076;SDS011;66003;52.286;104.306;2022-12-29T12:02:22;4.32;;;3.72;;
77076;SDS011;66003;52.286;104.306;2022-12-29T12:05:07;5.50;;;4.32;;
77076;SDS011;66003;52.286;104.306;2022-12-29T12:07:46;21.27;;;11.75;;
77076;SDS011;66003;52.286;104.306;2022-12-29T12:10:23;7.53;;;5.55;;
77076;SDS011;66003;52.286;104.306;2022-12-29T12:15:36;13.75;;;7.97;;
77076;SDS011;66003;52.286;104.306;2022-12-29T12:18:12;20.98;;;10.00;;
77076;SDS011;66003;52.286;104.306;2022-12-29T12:20:51;16.52;;;9.00;;
77076;SDS011;66003;52.286;104.306;2022-12-29T12:35:14;2.53;;;1.75;;
77076;SDS011;66003;52.286;104.306;2022-12-29T12:40:53;3.50;;;3.20;;
77076;SDS011;66003;52.286;104.306;2022-12-29T12:43:31;22.80;;;11.13;;
77076;SDS011;66003;52.286;104.306;2022-12-29T12:46:19;27.05;;;16.50;;
77076;SDS011;66003;52.286;104.306;2022-12-29T12:57:45;4.93;;;3.10;;
77076;SDS011;66003;52.286;104.306;2022-12-29T13:00:22;5.45;;;2.78;;
77076;SDS011;66003;52.286;104.306;2022-12-29T13:05:50;16.58;;;8.05;;
77076;SDS011;66003;52.286;104.306;2022-12-29T13:08:44;10.75;;;6.70;;
77076;SDS011;66003;52.286;104.306;2022-12-29T13:19:13;7.45;;;4.05;;
77076;SDS011;66003;52.286;104.306;2022-12-29T13:21:55;16.60;;;8.90;;
77076;SDS011;66003;52.286;104.306;2022-12-29T13:24:51;23.73;;;11.63;;
77076;SDS011;66003;52.286;104.306;2022-12-29T13:30:14;12.88;;;5.13;;
77076;SDS011;66003;52.286;104.306;2022-12-29T13:32:53;8.02;;;3.83;;
77076;SDS011;66003;52.286;104.306;2022-12-29T13:35:56;9.05;;;3.80;;
77076;SDS011;66003;52.286;104.306;2022-12-29T13:38:33;8.32;;;5.63;;
77076;SDS011;66003;52.286;104.306;2022-12-29T13:41:08;10.27;;;6.57;;
77076;SDS011;66003;52.286;104.306;2022-12-29T13:43:39;7.57;;;3.53;;
77076;SDS011;66003;52.286;104.306;2022-12-29T13:46:15;4.15;;;2.53;;
77076;SDS011;66003;52.286;104.306;2022-12-29T13:51:27;17.45;;;9.05;;
77076;SDS011;66003;52.286;104.306;2022-12-29T13:54:00;13.45;;;8.48;;
77076;SDS011;66003;52.286;104.306;2022-12-29T13:56:39;18.20;;;11.57;;
77076;SDS011;66003;52.286;104.306;2022-12-29T14:02:15;16.58;;;7.55;;
77076;SDS011;66003;52.286;104.306;2022-12-29T14:07:46;14.43;;;7.05;;
77076;SDS011;66003;52.286;104.306;2022-12-29T14:10:32;8.20;;;4.65;;
77076;SDS011;66003;52.286;104.306;2022-12-29T14:13:15;8.43;;;6.55;;
77076;SDS011;66003;52.286;104.306;2022-12-29T14:15:43;18.20;;;8.05;;
77076;SDS011;66003;52.286;104.306;2022-12-29T14:21:04;8.45;;;5.05;;
77076;SDS011;66003;52.286;104.306;2022-12-29T14:23:42;20.63;;;7.68;;
77076;SDS011;66003;52.286;104.306;2022-12-29T14:29:15;10.02;;;5.35;;
77076;SDS011;66003;52.286;104.306;2022-12-29T14:32:01;15.35;;;9.10;;
77076;SDS011;66003;52.286;104.306;2022-12-29T14:34:28;21.95;;;9.32;;
77076;SDS011;66003;52.286;104.306;2022-12-29T14:37:04;14.48;;;8.07;;
77076;SDS011;66003;52.286;104.306;2022-12-29T14:42:43;12.70;;;5.72;;
77076;SDS011;66003;52.286;104.306;2022-12-29T14:47:47;20.48;;;9.60;;
77076;SDS011;66003;52.286;104.306;2022-12-29T14:53:03;15.32;;;7.57;;
77076;SDS011;66003;52.286;104.306;2022-12-29T14:58:22;16.58;;;8.65;;
77076;SDS011;66003;52.286;104.306;2022-12-29T15:01:57;18.50;;;10.38;;
77076;SDS011;66003;52.286;104.306;2022-12-29T15:03:59;20.95;;;9.45;;
77076;SDS011;66003;52.286;104.306;2022-12-29T15:06:30;22.13;;;10.77;;
77076;SDS011;66003;52.286;104.306;2022-12-29T15:09:06;41.35;;;14.90;;
77076;SDS011;66003;52.286;104.306;2022-12-29T15:11:56;29.92;;;12.60;;
77076;SDS011;66003;52.286;104.306;2022-12-29T15:14:34;55.88;;;25.77;;
77076;SDS011;66003;52.286;104.306;2022-12-29T15:17:36;20.67;;;10.40;;
77076;SDS011;66003;52.286;104.306;2022-12-29T15:19:57;48.30;;;20.17;;
77076;SDS011;66003;52.286;104.306;2022-12-29T15:22:25;20.15;;;13.73;;
77076;SDS011;66003;52.286;104.306;2022-12-29T15:24:53;20.58;;;10.05;;
77076;SDS011;66003;52.286;104.306;2022-12-29T15:27:22;33.25;;;12.63;;
77076;SDS011;66003;52.286;104.306;2022-12-29T15:29:57;44.30;;;15.98;;
77076;SDS011;66003;52.286;104.306;2022-12-29T15:32:29;22.98;;;9.48;;
77076;SDS011;66003;52.286;104.306;2022-12-29T15:37:53;29.55;;;12.85;;
77076;SDS011;66003;52.286;104.306;2022-12-29T15:40:30;30.50;;;16.08;;
77076;SDS011;66003;52.286;104.306;2022-12-29T15:45:27;24.38;;;11.68;;
77076;SDS011;66003;52.286;104.306;2022-12-29T15:47:59;25.75;;;11.00;;
77076;SDS011;66003;52.286;104.306;2022-12-29T15:52:53;22.25;;;11.38;;
77076;SDS011;66003;52.286;104.306;2022-12-29T15:58:01;18.25;;;8.90;;
77076;SDS011;66003;52.286;104.306;2022-12-29T16:00:31;29.00;;;11.68;;
77076;SDS011;66003;52.286;104.306;2022-12-29T16:02:59;25.25;;;10.82;;
77076;SDS011;66003;52.286;104.306;2022-12-29T16:05:33;16.25;;;8.48;;
77076;SDS011;66003;52.286;104.306;2022-12-29T16:08:00;24.65;;;9.48;;
77076;SDS011;66003;52.286;104.306;2022-12-29T16:10:38;11.25;;;5.70;;
77076;SDS011;66003;52.286;104.306;2022-12-29T16:15:39;23.27;;;9.60;;
77076;SDS011;66003;52.286;104.306;2022-12-29T16:18:11;16.38;;;8.63;;
77076;SDS011;66003;52.286;104.306;2022-12-29T16:20:53;26.33;;;10.82;;
77076;SDS011;66003;52.286;104.306;2022-12-29T16:23:22;17.83;;;9.38;;
77076;SDS011;66003;52.286;104.306;2022-12-29T16:25:51;25.35;;;10.57;;
77076;SDS011;66003;52.286;104.306;2022-12-29T16:28:20;11.43;;;6.28;;
77076;SDS011;66003;52.286;104.306;2022-12-29T16:30:59;13.52;;;7.55;;
77076;SDS011;66003;52.286;104.306;2022-12-29T16:33:35;23.90;;;11.82;;
77076;SDS011;66003;52.286;104.306;2022-12-29T16:36:30;11.85;;;7.38;;
77076;SDS011;66003;52.286;104.306;2022-12-29T16:41:58;24.85;;;8.73;;
77076;SDS011;66003;52.286;104.306;2022-12-29T16:49:31;30.75;;;10.48;;
77076;SDS011;66003;52.286;104.306;2022-12-29T16:51:58;12.57;;;7.47;;
77076;SDS011;66003;52.286;104.306;2022-12-29T16:54:30;20.27;;;8.38;;
77076;SDS011;66003;52.286;104.306;2022-12-29T16:57:00;15.15;;;8.18;;
77076;SDS011;66003;52.286;104.306;2022-12-29T16:59:30;13.35;;;5.88;;
77076;SDS011;66003;52.286;104.306;2022-12-29T17:02:00;19.13;;;8.18;;
77076;SDS011;66003;52.286;104.306;2022-12-29T17:04:32;22.38;;;11.48;;
77076;SDS011;66003;52.286;104.306;2022-12-29T17:06:58;30.45;;;13.05;;
77076;SDS011;66003;52.286;104.306;2022-12-29T17:09:25;18.73;;;10.43;;